Terminal Aerodrome Forecast
Issued by NWS Glasgow, MT

Home | Current Version | Previous Version | Text Only | Print | Product List | Glossary On
Versions: 1 2 3 4 5 6 7 8 9 10 11 12 13 14 15 16
292
FTUS45 KGGW 141720
TAFGGW
TAF
KGGW 141720Z 1418/1518 28008KT P6SM BKN060
     FM142100 31012KT P6SM BKN100
     FM150000 30008KT P6SM SCT250
     FM151200 25005KT P6SM VCSH BKN070=

USA.gov is the U.S. government's official web portal to all federal, state and local government web resources and services.